Time;durP1;ratioP1;P1;durP2;ratioP2;P2;SDS_P1;SDS_P2;PMS_P1;PMS_P2;Temp;Humidity;BMP_temperature;BMP_pressure;BME280_temperature;BME280_humidity;BME280_pressure;Samples;Min_cycle;Max_cycle;Signal;HPM_P1;HPM_P2
2023/01/31 00:01:53;;;;;;;;;;;;;;;;;;6295716;28;20076;-62
2023/01/31 00:04:55;;;;;;;20.85;8.38;;;;;;;;;;6293299;28;19936;-69
2023/01/31 00:07:56;;;;;;;16.58;8.10;;;;;;;;;;6250714;28;20048;-67
2023/01/31 00:10:58;;;;;;;17.05;8.38;;;;;;;;;;6282853;28;20075;-65
2023/01/31 00:14:00;;;;;;;16.63;8.07;;;;;;;;;;6267636;28;20067;-64
2023/01/31 00:17:01;;;;;;;;;;;;;;;;;;6265871;28;20450;-67
2023/01/31 00:20:02;;;;;;;19.17;7.75;;;;;;;;;;6269340;28;19971;-62
2023/01/31 00:23:02;;;;;;;19.20;7.25;;;;;;;;;;6269794;28;20037;-63
2023/01/31 00:26:13;;;;;;;15.43;6.88;;;;;;;;;;6268190;28;20049;-69
2023/01/31 00:29:13;;;;;;;20.02;7.38;;;;;;;;;;6265991;28;20056;-63
2023/01/31 00:32:14;;;;;;;18.58;8.05;;;;;;;;;;6278224;28;20544;-68
2023/01/31 00:35:15;;;;;;;17.30;6.90;;;;;;;;;;6272075;28;20045;-62
2023/01/31 00:38:15;;;;;;;19.33;8.02;;;;;;;;;;6270913;28;20049;-67
2023/01/31 00:41:17;;;;;;;21.27;7.63;;;;;;;;;;6272557;28;20139;-63
2023/01/31 00:44:17;;;;;;;24.48;7.80;;;;;;;;;;6269138;28;20040;-65
2023/01/31 00:47:18;;;;;;;18.75;8.02;;;;;;;;;;6266445;28;20064;-68
2023/01/31 00:50:19;;;;;;;19.98;7.78;;;;;;;;;;6283746;28;20044;-60
2023/01/31 00:53:24;;;;;;;17.63;7.32;;;;;;;;;;6267694;28;20505;-62
2023/01/31 00:56:25;;;;;;;19.92;6.95;;;;;;;;;;6271019;28;20049;-63
2023/01/31 00:59:25;;;;;;;19.45;7.10;;;;;;;;;;6266548;28;20821;-62
2023/01/31 01:02:26;;;;;;;16.83;7.60;;;;;;;;;;6266349;28;20091;-63
2023/01/31 01:05:26;;;;;;;24.85;8.75;;;;;;;;;;6290446;28;20082;-63
2023/01/31 01:08:28;;;;;;;19.65;7.32;;;;;;;;;;6284708;28;20069;-66
2023/01/31 01:11:30;;;;;;;21.73;8.57;;;;;;;;;;6266688;28;20051;-63
2023/01/31 01:14:31;;;;;;;17.45;7.03;;;;;;;;;;6272913;28;20060;-62
2023/01/31 01:17:32;;;;;;;26.95;8.30;;;;;;;;;;6290285;28;20094;-63
2023/01/31 01:20:34;;;;;;;16.73;6.10;;;;;;;;;;6272800;28;20483;-62
2023/01/31 01:23:35;;;;;;;15.23;6.18;;;;;;;;;;6268012;28;20048;-64
2023/01/31 01:26:36;;;;;;;17.60;6.55;;;;;;;;;;6267692;28;20487;-63
2023/01/31 01:29:38;;;;;;;18.60;5.93;;;;;;;;;;6266788;28;20049;-63
2023/01/31 01:32:38;;;;;;;18.07;5.90;;;;;;;;;;6269239;28;20040;-63
2023/01/31 01:35:39;;;;;;;13.75;4.97;;;;;;;;;;6267051;28;20300;-62
2023/01/31 01:38:40;;;;;;;16.13;4.72;;;;;;;;;;6268035;28;20044;-63
2023/01/31 01:41:40;;;;;;;18.25;5.05;;;;;;;;;;6267726;28;20167;-63
2023/01/31 01:44:49;;;;;;;18.45;4.32;;;;;;;;;;6265634;28;20056;-63
2023/01/31 01:47:51;;;;;;;13.55;4.40;;;;;;;;;;6265753;28;20390;-62
2023/01/31 01:50:51;;;;;;;15.00;3.05;;;;;;;;;;6272920;28;20059;-63
2023/01/31 01:53:56;;;;;;;14.60;2.88;;;;;;;;;;6279309;28;20483;-66
2023/01/31 01:57:00;;;;;;;14.43;2.97;;;;;;;;;;6289506;28;20103;-68
2023/01/31 02:00:08;;;;;;;16.50;2.55;;;;;;;;;;6288504;28;20052;-63
2023/01/31 02:03:09;;;;;;;11.02;2.47;;;;;;;;;;6269515;28;20128;-62
2023/01/31 02:06:10;;;;;;;13.13;2.28;;;;;;;;;;6267385;28;20407;-63
2023/01/31 02:09:19;;;;;;;14.25;2.45;;;;;;;;;;6261689;28;20737;-62
2023/01/31 02:12:20;;;;;;;12.75;2.50;;;;;;;;;;6264356;28;20048;-62
2023/01/31 02:15:21;;;;;;;11.07;2.63;;;;;;;;;;6270309;28;20037;-62
2023/01/31 02:18:24;;;;;;;11.85;2.55;;;;;;;;;;6266483;28;20052;-68
2023/01/31 02:21:27;;;;;;;13.35;3.10;;;;;;;;;;6266660;28;20106;-62
2023/01/31 02:24:50;;;;;;;14.38;2.78;;;;;;;;;;6266612;28;20073;-63
2023/01/31 02:28:03;;;;;;;13.77;2.75;;;;;;;;;;6262707;28;20052;-62
2023/01/31 02:31:30;;;;;;;16.77;2.75;;;;;;;;;;6264171;28;20107;-66
2023/01/31 02:34:50;;;;;;;19.88;3.53;;;;;;;;;;6265885;28;20045;-62
2023/01/31 02:37:57;;;;;;;8.45;2.70;;;;;;;;;;6267367;28;20060;-62
2023/01/31 02:41:14;;;;;;;18.08;3.80;;;;;;;;;;6263199;28;20055;-62
2023/01/31 02:44:59;;;;;;;11.63;2.70;;;;;;;;;;6262993;28;20705;-64
2023/01/31 02:48:18;;;;;;;12.05;2.63;;;;;;;;;;6262588;28;20137;-63
2023/01/31 02:52:15;;;;;;;12.45;2.72;;;;;;;;;;6266337;28;20048;-63
2023/01/31 02:58:47;;;;;;;12.85;3.63;;;;;;;;;;6264857;28;20525;-62
2023/01/31 03:01:58;;;;;;;17.10;4.05;;;;;;;;;;6264312;28;20044;-62
2023/01/31 03:04:58;;;;;;;9.38;3.33;;;;;;;;;;6264651;28;20470;-63
2023/01/31 03:08:01;;;;;;;17.70;3.50;;;;;;;;;;6280216;28;20055;-63
2023/01/31 03:11:05;;;;;;;11.70;3.20;;;;;;;;;;6265740;28;20638;-62
2023/01/31 03:14:19;;;;;;;14.90;4.03;;;;;;;;;;6265110;28;20049;-62
2023/01/31 03:17:51;;;;;;;9.60;3.30;;;;;;;;;;6264809;28;20415;-63
2023/01/31 03:21:15;;;;;;;16.63;4.07;;;;;;;;;;6271877;28;20062;-68
2023/01/31 03:24:16;;;;;;;12.38;3.85;;;;;;;;;;6287849;28;20582;-63
2023/01/31 03:27:19;;;;;;;14.20;5.10;;;;;;;;;;6268858;28;20135;-63
2023/01/31 03:30:27;;;;;;;13.02;4.57;;;;;;;;;;6267770;28;20095;-63
2023/01/31 03:33:32;;;;;;;18.10;3.78;;;;;;;;;;6267472;28;21025;-62
2023/01/31 03:36:50;;;;;;;15.40;4.07;;;;;;;;;;6268194;28;20053;-63
2023/01/31 03:40:01;;;;;;;11.15;3.22;;;;;;;;;;6262067;28;20053;-62
2023/01/31 03:43:08;;;;;;;10.57;2.90;;;;;;;;;;6246642;28;20049;-63
2023/01/31 03:46:15;;;;;;;10.23;2.83;;;;;;;;;;6273968;28;20463;-63
2023/01/31 03:49:18;;;;;;;14.57;3.35;;;;;;;;;;6268604;28;20048;-67
2023/01/31 03:52:25;;;;;;;11.85;2.55;;;;;;;;;;6264254;28;20045;-63
2023/01/31 03:55:42;;;;;;;13.48;3.28;;;;;;;;;;6263784;28;20623;-63
2023/01/31 03:58:50;;;;;;;15.77;2.50;;;;;;;;;;6264814;28;20045;-62
2023/01/31 04:01:54;;;;;;;10.00;2.13;;;;;;;;;;6283411;28;20466;-62
2023/01/31 04:05:03;;;;;;;11.77;2.55;;;;;;;;;;6284356;28;20049;-62
2023/01/31 04:08:03;;;;;;;10.68;2.45;;;;;;;;;;6270661;28;20046;-62
2023/01/31 04:11:09;;;;;;;18.40;2.47;;;;;;;;;;6265785;28;20041;-63
2023/01/31 04:14:09;;;;;;;8.88;2.10;;;;;;;;;;6269831;28;20048;-63
2023/01/31 04:17:10;;;;;;;8.98;2.83;;;;;;;;;;6271525;28;20080;-62
2023/01/31 04:20:12;;;;;;;9.32;1.98;;;;;;;;;;6270074;28;20045;-63
2023/01/31 04:23:12;;;;;;;11.77;2.92;;;;;;;;;;6269530;28;20465;-63
2023/01/31 04:26:13;;;;;;;12.25;3.30;;;;;;;;;;6266769;28;20041;-62
2023/01/31 04:29:14;;;;;;;12.35;2.70;;;;;;;;;;6269360;28;20032;-62
2023/01/31 04:32:14;;;;;;;14.93;2.90;;;;;;;;;;6263503;28;20063;-62
2023/01/31 04:35:15;;;;;;;9.52;3.25;;;;;;;;;;6268747;28;20053;-63
2023/01/31 04:38:15;;;;;;;8.27;2.60;;;;;;;;;;6268754;28;20527;-63
2023/01/31 04:41:16;;;;;;;11.43;3.13;;;;;;;;;;6270508;28;20461;-64
2023/01/31 04:44:17;;;;;;;9.35;2.78;;;;;;;;;;6267269;28;20419;-65
2023/01/31 04:47:17;;;;;;;15.00;2.90;;;;;;;;;;6274931;28;20049;-63
2023/01/31 04:50:18;;;;;;;11.70;3.38;;;;;;;;;;6290520;28;20055;-66
2023/01/31 04:53:20;;;;;;;10.38;3.55;;;;;;;;;;6273000;28;20094;-63
2023/01/31 04:56:21;;;;;;;13.55;3.25;;;;;;;;;;6278540;28;20046;-65
2023/01/31 04:59:22;;;;;;;20.08;4.25;;;;;;;;;;6268569;28;20045;-63
2023/01/31 05:02:22;;;;;;;10.07;3.50;;;;;;;;;;6275821;28;20045;-63
2023/01/31 05:05:23;;;;;;;20.75;3.80;;;;;;;;;;6270121;28;20060;-62
2023/01/31 05:08:24;;;;;;;13.48;3.75;;;;;;;;;;6269158;28;20049;-63
2023/01/31 05:11:24;;;;;;;14.52;3.50;;;;;;;;;;6277131;28;20044;-63
2023/01/31 05:14:26;;;;;;;16.42;3.78;;;;;;;;;;6284434;28;20044;-63
2023/01/31 05:17:28;;;;;;;15.18;3.58;;;;;;;;;;6267341;28;20052;-62
2023/01/31 05:20:30;;;;;;;14.65;4.22;;;;;;;;;;6270509;28;20049;-63
2023/01/31 05:23:32;;;;;;;13.13;3.63;;;;;;;;;;6267991;28;20069;-65
2023/01/31 05:26:33;;;;;;;16.38;4.18;;;;;;;;;;6247758;28;20118;-63
2023/01/31 05:29:34;;;;;;;15.98;3.50;;;;;;;;;;6253488;28;20044;-62
2023/01/31 05:32:35;;;;;;;12.75;4.20;;;;;;;;;;6266935;28;20037;-62
2023/01/31 05:35:38;;;;;;;14.85;4.47;;;;;;;;;;6269602;28;20045;-62
2023/01/31 05:38:38;;;;;;;16.65;4.28;;;;;;;;;;6270102;28;20040;-62
2023/01/31 05:41:39;;;;;;;14.65;4.78;;;;;;;;;;6266851;28;20419;-63
2023/01/31 05:44:39;;;;;;;22.42;4.65;;;;;;;;;;6265378;28;20036;-62
2023/01/31 05:47:40;;;;;;;16.92;4.90;;;;;;;;;;6235486;28;20479;-63
2023/01/31 05:50:40;;;;;;;17.13;4.25;;;;;;;;;;6266491;28;20110;-63
2023/01/31 05:53:41;;;;;;;16.42;4.03;;;;;;;;;;6266062;28;20041;-62
2023/01/31 05:56:41;;;;;;;16.00;3.80;;;;;;;;;;6234193;28;20053;-62
2023/01/31 05:59:42;;;;;;;16.58;3.85;;;;;;;;;;6264874;28;20056;-62
2023/01/31 06:02:43;;;;;;;14.15;3.28;;;;;;;;;;6265712;28;20483;-62
2023/01/31 06:05:43;;;;;;;10.55;3.00;;;;;;;;;;6264374;28;20062;-62
2023/01/31 06:08:44;;;;;;;17.65;3.03;;;;;;;;;;6247041;28;20186;-62
2023/01/31 06:11:45;;;;;;;15.75;2.97;;;;;;;;;;6266431;28;20044;-62
2023/01/31 06:14:45;;;;;;;11.02;3.25;;;;;;;;;;6269204;28;20041;-62
2023/01/31 06:17:46;;;;;;;15.20;3.38;;;;;;;;;;6266871;28;20072;-63
2023/01/31 06:20:46;;;;;;;15.65;3.22;;;;;;;;;;6265717;28;20496;-65
2023/01/31 06:23:47;;;;;;;13.60;2.65;;;;;;;;;;6264187;28;20049;-62
2023/01/31 06:26:47;;;;;;;13.05;3.65;;;;;;;;;;6263154;28;20041;-63
2023/01/31 06:29:48;;;;;;;15.43;3.28;;;;;;;;;;6267830;28;20402;-61
2023/01/31 06:32:49;;;;;;;16.85;3.80;;;;;;;;;;6267772;28;20048;-62
2023/01/31 06:35:49;;;;;;;15.05;3.22;;;;;;;;;;6265226;28;20132;-62
2023/01/31 06:38:51;;;;;;;16.05;3.90;;;;;;;;;;6267332;28;20052;-70
2023/01/31 06:41:51;;;;;;;12.85;4.15;;;;;;;;;;6266761;28;20048;-61
2023/01/31 06:44:52;;;;;;;18.30;3.63;;;;;;;;;;6264865;28;20488;-61
2023/01/31 06:47:53;;;;;;;16.75;3.78;;;;;;;;;;6266500;28;20468;-62
2023/01/31 06:50:53;;;;;;;22.83;4.07;;;;;;;;;;6266187;28;20044;-61
2023/01/31 06:53:55;;;;;;;14.82;3.50;;;;;;;;;;6249610;28;20051;-61
2023/01/31 06:56:55;;;;;;;12.60;4.50;;;;;;;;;;6251624;28;20400;-62
2023/01/31 06:59:56;;;;;;;17.05;4.78;;;;;;;;;;6248194;28;20049;-61
2023/01/31 07:02:56;;;;;;;15.35;3.70;;;;;;;;;;6254740;28;20800;-62
2023/01/31 07:05:57;;;;;;;16.65;3.90;;;;;;;;;;6249611;28;20051;-62
2023/01/31 07:08:58;;;;;;;16.73;4.00;;;;;;;;;;6251399;28;20040;-61
2023/01/31 07:11:58;;;;;;;17.88;4.85;;;;;;;;;;6250415;28;20049;-62
2023/01/31 07:14:59;;;;;;;16.80;4.65;;;;;;;;;;6251136;28;20088;-62
2023/01/31 07:18:00;;;;;;;18.02;4.32;;;;;;;;;;6249308;28;20148;-61
2023/01/31 07:21:00;;;;;;;20.92;4.40;;;;;;;;;;6248060;28;20542;-62
2023/01/31 07:24:02;;;;;;;19.45;4.18;;;;;;;;;;6250236;28;20132;-62
2023/01/31 07:27:02;;;;;;;21.77;5.20;;;;;;;;;;6252640;28;20056;-61
2023/01/31 07:30:04;;;;;;;19.52;4.32;;;;;;;;;;6252905;28;20260;-61
2023/01/31 07:33:04;;;;;;;19.75;4.93;;;;;;;;;;6249244;28;20037;-61
2023/01/31 07:36:07;;;;;;;18.30;4.50;;;;;;;;;;6252489;28;20049;-62
2023/01/31 07:39:07;;;;;;;;;;;;;;;;;;6259218;28;20044;-62
2023/01/31 07:42:08;;;;;;;22.27;4.43;;;;;;;;;;6253731;28;19925;-64
2023/01/31 07:45:13;;;;;;;19.33;4.97;;;;;;;;;;6257640;28;20041;-62
2023/01/31 07:48:14;;;;;;;22.73;4.65;;;;;;;;;;6257634;28;20051;-63
2023/01/31 07:51:14;;;;;;;21.60;4.78;;;;;;;;;;6251818;28;20037;-64
2023/01/31 07:54:15;;;;;;;17.58;4.22;;;;;;;;;;6252656;28;20071;-63
2023/01/31 07:57:16;;;;;;;20.35;4.45;;;;;;;;;;6269599;28;20549;-62
2023/01/31 08:03:36;;;;;;;14.05;3.40;;;;;;;;;;6288072;28;20199;-66
2023/01/31 08:06:39;;;;;;;16.50;3.75;;;;;;;;;;6290756;28;20049;-65
2023/01/31 08:09:42;;;;;;;17.88;3.90;;;;;;;;;;6281840;28;20487;-66
2023/01/31 08:12:43;;;;;;;26.65;4.95;;;;;;;;;;6286608;28;20097;-67
2023/01/31 08:15:43;;;;;;;15.93;4.20;;;;;;;;;;6295463;28;20048;-65
2023/01/31 08:18:44;;;;;;;15.60;4.85;;;;;;;;;;6288221;28;20044;-65
2023/01/31 08:21:44;;;;;;;25.70;4.50;;;;;;;;;;6285055;28;20052;-66
2023/01/31 08:24:45;;;;;;;16.52;3.97;;;;;;;;;;6287404;28;20106;-66
2023/01/31 08:27:46;;;;;;;19.27;4.35;;;;;;;;;;6293647;28;20060;-61
2023/01/31 08:30:47;;;;;;;11.57;3.60;;;;;;;;;;6292199;28;20385;-67
2023/01/31 08:33:52;;;;;;;15.80;4.40;;;;;;;;;;6293819;28;20446;-68
2023/01/31 08:36:52;;;;;;;19.70;4.10;;;;;;;;;;6295160;28;20083;-67
2023/01/31 08:39:53;;;;;;;19.33;4.40;;;;;;;;;;6294584;28;20519;-61
2023/01/31 08:42:55;;;;;;;15.35;4.28;;;;;;;;;;6293271;28;20040;-69
2023/01/31 08:45:55;;;;;;;20.13;4.00;;;;;;;;;;6294672;28;20552;-67
2023/01/31 08:48:56;;;;;;;17.38;4.70;;;;;;;;;;6293552;28;20045;-64
2023/01/31 08:51:57;;;;;;;19.02;4.57;;;;;;;;;;6271882;28;20041;-67
2023/01/31 08:54:57;;;;;;;18.77;4.20;;;;;;;;;;6271697;28;20060;-66
2023/01/31 08:57:58;;;;;;;27.15;4.40;;;;;;;;;;6284893;28;20473;-65
2023/01/31 09:01:08;;;;;;;22.92;4.57;;;;;;;;;;6294049;28;20147;-63
2023/01/31 09:04:08;;;;;;;17.00;4.38;;;;;;;;;;6265976;28;20060;-58
2023/01/31 09:07:09;;;;;;;18.27;3.88;;;;;;;;;;6278823;28;20193;-65
2023/01/31 09:10:10;;;;;;;19.52;3.90;;;;;;;;;;6293669;28;20044;-63
2023/01/31 09:13:10;;;;;;;16.92;3.28;;;;;;;;;;6292783;28;20051;-64
2023/01/31 09:16:12;;;;;;;12.02;3.22;;;;;;;;;;6294494;28;20037;-66
2023/01/31 09:19:13;;;;;;;12.57;2.95;;;;;;;;;;6294019;28;20044;-64
2023/01/31 09:22:14;;;;;;;15.65;3.63;;;;;;;;;;6293052;28;20052;-65
2023/01/31 09:25:14;;;;;;;19.58;4.40;;;;;;;;;;6260328;28;20140;-63
2023/01/31 09:28:15;;;;;;;14.45;3.50;;;;;;;;;;6266202;28;20049;-65
2023/01/31 09:31:19;;;;;;;19.08;3.90;;;;;;;;;;6267061;28;20071;-63
2023/01/31 09:34:21;;;;;;;21.02;4.38;;;;;;;;;;6266085;28;20045;-64
2023/01/31 09:37:21;;;;;;;13.55;3.72;;;;;;;;;;6262212;28;20063;-63
2023/01/31 09:40:25;;;;;;;15.70;3.50;;;;;;;;;;6262559;28;20045;-61
2023/01/31 09:43:33;;;;;;;13.65;3.33;;;;;;;;;;6263909;28;20049;-62
2023/01/31 09:46:41;;;;;;;13.57;3.42;;;;;;;;;;6264863;28;20407;-62
2023/01/31 09:49:47;;;;;;;17.40;4.88;;;;;;;;;;6264856;28;20575;-62
2023/01/31 09:52:48;;;;;;;16.73;3.97;;;;;;;;;;6264929;28;20423;-62
2023/01/31 09:56:07;;;;;;;11.98;3.30;;;;;;;;;;6264848;28;20043;-62
2023/01/31 09:59:21;;;;;;;11.80;3.58;;;;;;;;;;6263931;28;20175;-61
2023/01/31 10:02:46;;;;;;;12.35;3.70;;;;;;;;;;6253475;28;20063;-62
2023/01/31 10:05:53;;;;;;;17.13;3.85;;;;;;;;;;6251031;28;20136;-62
2023/01/31 10:08:59;;;;;;;14.18;3.22;;;;;;;;;;6249528;28;20041;-64
2023/01/31 10:12:16;;;;;;;10.27;2.88;;;;;;;;;;6256198;28;20072;-71
2023/01/31 10:15:33;;;;;;;14.55;3.25;;;;;;;;;;6264635;28;20086;-59
2023/01/31 10:18:40;;;;;;;14.82;2.95;;;;;;;;;;6262164;28;20053;-56
2023/01/31 10:21:44;;;;;;;15.80;2.92;;;;;;;;;;6249835;28;20045;-57
2023/01/31 10:24:54;;;;;;;18.67;3.25;;;;;;;;;;6249003;28;20055;-57
2023/01/31 10:28:07;;;;;;;12.52;3.65;;;;;;;;;;6250599;28;20045;-58
2023/01/31 10:31:32;;;;;;;15.77;4.03;;;;;;;;;;6247125;28;20054;-58
2023/01/31 10:35:00;;;;;;;11.70;3.97;;;;;;;;;;6250313;28;20049;-57
2023/01/31 10:38:10;;;;;;;14.98;3.58;;;;;;;;;;6248425;28;20053;-58
2023/01/31 10:41:16;;;;;;;19.58;4.13;;;;;;;;;;6245873;28;20075;-58
2023/01/31 10:44:25;;;;;;;17.98;4.65;;;;;;;;;;6246218;28;20628;-57
2023/01/31 10:47:33;;;;;;;13.75;4.40;;;;;;;;;;6250699;28;20052;-57
2023/01/31 10:51:05;;;;;;;15.80;4.25;;;;;;;;;;6247778;28;20476;-57
2023/01/31 10:54:35;;;;;;;22.25;4.30;;;;;;;;;;6249599;28;20431;-58
2023/01/31 10:57:36;;;;;;;21.55;4.18;;;;;;;;;;6222952;28;20049;-58
2023/01/31 11:00:36;;;;;;;16.13;4.53;;;;;;;;;;6247930;28;20057;-55
2023/01/31 11:03:37;;;;;;;16.17;3.90;;;;;;;;;;6250182;28;20058;-54
2023/01/31 11:06:38;;;;;;;15.55;3.03;;;;;;;;;;6249354;28;20093;-57
2023/01/31 11:09:52;;;;;;;13.68;3.70;;;;;;;;;;6247487;28;20038;-54
2023/01/31 11:12:58;;;;;;;13.80;3.20;;;;;;;;;;6248799;28;20045;-58
2023/01/31 11:16:01;;;;;;;12.45;3.40;;;;;;;;;;6257234;28;20519;-56
2023/01/31 11:19:25;;;;;;;11.95;3.08;;;;;;;;;;6253756;28;20079;-57
2023/01/31 11:22:31;;;;;;;11.57;3.17;;;;;;;;;;6257356;28;20243;-57
2023/01/31 11:25:33;;;;;;;13.63;3.15;;;;;;;;;;6258036;28;20057;-54
2023/01/31 11:28:40;;;;;;;15.85;2.97;;;;;;;;;;6258178;28;20085;-57
2023/01/31 11:31:44;;;;;;;16.02;4.15;;;;;;;;;;6256126;28;20057;-61
2023/01/31 11:35:03;;;;;;;9.05;2.67;;;;;;;;;;6261309;28;20056;-57
2023/01/31 11:38:10;;;;;;;21.30;3.47;;;;;;;;;;6254382;28;20048;-54
2023/01/31 11:41:30;;;;;;;17.27;3.40;;;;;;;;;;6255433;28;20064;-56
2023/01/31 11:44:31;;;;;;;10.85;3.08;;;;;;;;;;6253614;28;20131;-56
2023/01/31 11:47:52;;;;;;;14.05;3.33;;;;;;;;;;6252531;28;20053;-59
2023/01/31 11:50:59;;;;;;;12.43;3.15;;;;;;;;;;6251413;28;20408;-52
2023/01/31 11:54:03;;;;;;;15.55;3.40;;;;;;;;;;6259189;28;20385;-53
2023/01/31 11:57:31;;;;;;;17.67;3.25;;;;;;;;;;6255543;28;20140;-59
2023/01/31 12:00:32;;;;;;;12.13;3.10;;;;;;;;;;6254275;28;20065;-55
2023/01/31 12:03:34;;;;;;;12.52;3.13;;;;;;;;;;6252495;28;20094;-54
2023/01/31 12:06:37;;;;;;;12.00;3.35;;;;;;;;;;6258871;28;20057;-54
2023/01/31 12:09:42;;;;;;;13.15;3.33;;;;;;;;;;6263934;28;20135;-51
2023/01/31 12:12:43;;;;;;;11.85;3.70;;;;;;;;;;6268640;28;20798;-65
2023/01/31 12:16:00;;;;;;;26.58;6.60;;;;;;;;;;6267011;28;20076;-64
2023/01/31 12:19:13;;;;;;;24.00;5.57;;;;;;;;;;6264365;28;20446;-57
2023/01/31 12:22:13;;;;;;;17.67;5.40;;;;;;;;;;6267880;28;20045;-53
2023/01/31 12:25:45;;;;;;;18.92;5.07;;;;;;;;;;6264726;28;20044;-53
2023/01/31 12:29:10;;;;;;;20.05;4.63;;;;;;;;;;6266772;28;20128;-58
2023/01/31 12:32:41;;;;;;;19.20;5.07;;;;;;;;;;6264795;28;20057;-55
2023/01/31 12:36:00;;;;;;;22.77;3.92;;;;;;;;;;6261976;28;20924;-58
2023/01/31 12:39:29;;;;;;;9.88;3.13;;;;;;;;;;6265293;28;20210;-63
2023/01/31 12:42:54;;;;;;;15.68;3.90;;;;;;;;;;6264818;28;20088;-56
2023/01/31 12:46:10;;;;;;;15.52;4.18;;;;;;;;;;6265826;28;20135;-62
2023/01/31 12:49:29;;;;;;;13.98;3.47;;;;;;;;;;6262021;28;20043;-56
2023/01/31 12:52:39;;;;;;;12.30;3.17;;;;;;;;;;6264050;28;20457;-62
2023/01/31 12:56:05;;;;;;;12.38;3.17;;;;;;;;;;6265246;28;20055;-52
2023/01/31 12:59:33;;;;;;;13.02;4.50;;;;;;;;;;6265551;28;20601;-58
2023/01/31 13:03:04;;;;;;;11.80;4.03;;;;;;;;;;6265942;28;20090;-56
2023/01/31 13:06:14;;;;;;;10.07;3.10;;;;;;;;;;6263378;28;20059;-54
2023/01/31 13:09:22;;;;;;;13.52;3.75;;;;;;;;;;6265395;28;20044;-53
2023/01/31 13:12:28;;;;;;;13.38;2.95;;;;;;;;;;6265943;28;20052;-66
2023/01/31 13:15:41;;;;;;;14.27;2.95;;;;;;;;;;6263790;28;20421;-54
2023/01/31 13:18:46;;;;;;;13.52;3.38;;;;;;;;;;6250349;28;21064;-54
2023/01/31 13:21:53;;;;;;;10.25;3.50;;;;;;;;;;6251704;28;20514;-54
2023/01/31 13:25:14;;;;;;;9.00;3.20;;;;;;;;;;6247829;28;20044;-55
2023/01/31 13:28:19;;;;;;;12.30;3.33;;;;;;;;;;6241758;28;20045;-56
2023/01/31 13:31:32;;;;;;;9.15;3.40;;;;;;;;;;6245859;28;20109;-58
2023/01/31 13:34:45;;;;;;;14.15;3.00;;;;;;;;;;6243385;28;20044;-54
2023/01/31 13:37:47;;;;;;;;;;;;;;;;;;6246118;28;20041;-52
2023/01/31 13:40:52;;;;;;;13.68;3.50;;;;;;;;;;6244529;28;19928;-54
2023/01/31 13:43:53;;;;;;;15.20;3.97;;;;;;;;;;6245968;28;21252;-54
2023/01/31 13:46:57;;;;;;;15.98;4.25;;;;;;;;;;6242281;28;20505;-55
2023/01/31 13:50:08;;;;;;;14.68;4.53;;;;;;;;;;6245351;28;20051;-51
2023/01/31 13:53:20;;;;;;;15.98;4.70;;;;;;;;;;6243755;28;20045;-52
2023/01/31 13:56:26;;;;;;;13.52;5.63;;;;;;;;;;6245225;28;20045;-54
2023/01/31 13:59:30;;;;;;;18.63;5.50;;;;;;;;;;6244415;28;20130;-53
2023/01/31 14:02:31;;;;;;;21.45;5.70;;;;;;;;;;6245374;28;20048;-56
2023/01/31 14:05:53;;;;;;;18.63;5.38;;;;;;;;;;6245480;28;20139;-54
2023/01/31 14:08:58;;;;;;;18.60;6.00;;;;;;;;;;6243061;28;21228;-55
2023/01/31 14:11:59;;;;;;;19.48;6.28;;;;;;;;;;6247539;28;20053;-62
2023/01/31 14:15:01;;;;;;;16.20;5.88;;;;;;;;;;6244537;28;20091;-54
2023/01/31 14:18:02;;;;;;;17.63;5.80;;;;;;;;;;6249042;28;20159;-55
2023/01/31 14:21:30;;;;;;;29.58;10.65;;;;;;;;;;6246785;28;20049;-55
2023/01/31 14:24:52;;;;;;;29.63;10.35;;;;;;;;;;6247528;28;20048;-55
2023/01/31 14:27:55;;;;;;;51.42;25.10;;;;;;;;;;6248692;28;20520;-54
2023/01/31 14:30:56;;;;;;;34.05;14.07;;;;;;;;;;6249441;28;20733;-55
2023/01/31 14:33:57;;;;;;;26.25;7.63;;;;;;;;;;6248068;28;20049;-57
2023/01/31 14:37:04;;;;;;;27.50;10.65;;;;;;;;;;6248189;28;20056;-57
2023/01/31 14:40:15;;;;;;;26.95;10.05;;;;;;;;;;6244865;28;20044;-56
2023/01/31 14:43:33;;;;;;;30.55;11.25;;;;;;;;;;6252366;28;20442;-58
2023/01/31 14:46:39;;;;;;;85.93;28.67;;;;;;;;;;6248653;28;20056;-54
2023/01/31 14:49:40;;;;;;;34.45;17.42;;;;;;;;;;6246840;28;20052;-56
2023/01/31 14:53:25;;;;;;;33.95;13.20;;;;;;;;;;6249486;28;20488;-54
2023/01/31 14:57:01;;;;;;;28.45;11.60;;;;;;;;;;6247161;28;20063;-56
2023/01/31 15:00:11;;;;;;;38.03;11.95;;;;;;;;;;6232108;28;20653;-54
2023/01/31 15:03:33;;;;;;;26.92;9.43;;;;;;;;;;6246777;28;20168;-55
2023/01/31 15:06:42;;;;;;;28.40;10.10;;;;;;;;;;6244560;28;20056;-55
2023/01/31 15:09:44;;;;;;;21.42;9.07;;;;;;;;;;6236151;28;20044;-56
2023/01/31 15:12:59;;;;;;;20.95;9.50;;;;;;;;;;6244377;28;20055;-51
2023/01/31 15:16:03;;;;;;;27.77;9.63;;;;;;;;;;6244415;28;20569;-54
2023/01/31 15:19:13;;;;;;;26.38;8.30;;;;;;;;;;6240838;28;20042;-55
2023/01/31 15:22:17;;;;;;;26.45;8.30;;;;;;;;;;6242606;28;20130;-56
2023/01/31 15:25:25;;;;;;;80.82;25.42;;;;;;;;;;6242767;28;20125;-56
2023/01/31 15:28:29;;;;;;;32.88;11.43;;;;;;;;;;6233095;28;20063;-56
2023/01/31 15:31:39;;;;;;;22.05;7.97;;;;;;;;;;6251789;28;20072;-56
2023/01/31 15:34:51;;;;;;;24.08;8.60;;;;;;;;;;6244819;28;20114;-55
2023/01/31 15:38:30;;;;;;;31.23;12.55;;;;;;;;;;6238105;28;20051;-55
2023/01/31 15:41:41;;;;;;;32.33;12.82;;;;;;;;;;6245404;28;20140;-53
2023/01/31 15:44:41;;;;;;;27.63;9.50;;;;;;;;;;6243932;28;20052;-56
2023/01/31 15:48:02;;;;;;;41.03;19.52;;;;;;;;;;6242873;28;20902;-60
2023/01/31 15:51:02;;;;;;;27.85;14.07;;;;;;;;;;6238742;28;20099;-55
2023/01/31 15:54:05;;;;;;;35.58;13.05;;;;;;;;;;6243752;28;20041;-62
2023/01/31 15:57:14;;;;;;;25.77;10.18;;;;;;;;;;6246526;28;20487;-55
2023/01/31 16:00:21;;;;;;;33.25;11.48;;;;;;;;;;6252017;28;20152;-51
2023/01/31 16:03:33;;;;;;;39.83;15.18;;;;;;;;;;6251253;28;20041;-56
2023/01/31 16:06:37;;;;;;;24.90;9.20;;;;;;;;;;6249724;28;20057;-59
2023/01/31 16:09:37;;;;;;;21.23;7.40;;;;;;;;;;6250436;28;20549;-53
2023/01/31 16:12:42;;;;;;;26.40;9.00;;;;;;;;;;6246892;28;20072;-56
2023/01/31 16:15:43;;;;;;;52.03;17.08;;;;;;;;;;6250186;28;20053;-56
2023/01/31 16:18:49;;;;;;;54.47;21.00;;;;;;;;;;6256259;28;20059;-61
2023/01/31 16:21:50;;;;;;;30.70;12.68;;;;;;;;;;6247696;28;20416;-57
2023/01/31 16:24:56;;;;;;;56.50;30.33;;;;;;;;;;6247730;28;20059;-58
2023/01/31 16:28:01;;;;;;;24.75;9.00;;;;;;;;;;6249123;28;20424;-60
2023/01/31 16:31:15;;;;;;;32.65;11.02;;;;;;;;;;6249228;28;20405;-60
2023/01/31 16:34:27;;;;;;;22.10;8.85;;;;;;;;;;6250248;28;20049;-66
2023/01/31 16:37:40;;;;;;;22.42;8.32;;;;;;;;;;6249895;28;20052;-64
2023/01/31 16:40:51;;;;;;;24.05;8.45;;;;;;;;;;6245315;28;20059;-60
2023/01/31 16:43:53;;;;;;;26.10;8.07;;;;;;;;;;6247582;28;20053;-67
2023/01/31 16:46:53;;;;;;;21.67;8.05;;;;;;;;;;6248173;28;21243;-55
2023/01/31 16:50:23;;;;;;;24.20;9.10;;;;;;;;;;6252473;28;20574;-58
2023/01/31 16:53:30;;;;;;;25.83;8.48;;;;;;;;;;6251897;28;20142;-59
2023/01/31 16:56:31;;;;;;;25.80;10.38;;;;;;;;;;6248672;28;20049;-59
2023/01/31 16:59:32;;;;;;;25.63;9.63;;;;;;;;;;6249581;28;20056;-57
2023/01/31 17:02:40;;;;;;;41.13;17.20;;;;;;;;;;6239624;28;20057;-57
2023/01/31 17:05:43;;;;;;;66.65;32.95;;;;;;;;;;6242071;28;20900;-58
2023/01/31 17:08:44;;;;;;;36.63;16.83;;;;;;;;;;6248134;28;20080;-58
2023/01/31 17:11:45;;;;;;;34.03;13.93;;;;;;;;;;6227229;28;20052;-58
2023/01/31 17:14:47;;;;;;;34.30;13.38;;;;;;;;;;6243414;28;20051;-62
2023/01/31 17:17:47;;;;;;;30.83;12.00;;;;;;;;;;6249092;28;20186;-59
2023/01/31 17:20:49;;;;;;;37.30;13.52;;;;;;;;;;6251479;28;20061;-61
2023/01/31 17:23:50;;;;;;;41.92;14.18;;;;;;;;;;6248194;28;20119;-61
2023/01/31 17:26:51;;;;;;;34.30;12.95;;;;;;;;;;6245012;28;20130;-54
2023/01/31 17:29:51;;;;;;;39.75;14.07;;;;;;;;;;6252238;28;20065;-55
2023/01/31 17:32:52;;;;;;;39.65;15.25;;;;;;;;;;6271481;28;20452;-55
2023/01/31 17:35:52;;;;;;;34.25;13.70;;;;;;;;;;6290369;28;20044;-51
2023/01/31 17:38:53;;;;;;;34.45;13.18;;;;;;;;;;6290833;28;20079;-53
2023/01/31 17:41:54;;;;;;;39.05;13.80;;;;;;;;;;6292685;28;20427;-66
2023/01/31 17:44:54;;;;;;;37.70;14.95;;;;;;;;;;6291939;28;20048;-54
2023/01/31 17:47:55;;;;;;;53.70;21.30;;;;;;;;;;6291223;28;20041;-64
2023/01/31 17:50:56;;;;;;;54.90;21.50;;;;;;;;;;6289518;28;20045;-57
2023/01/31 17:53:56;;;;;;;43.03;16.90;;;;;;;;;;6269016;28;20086;-53
2023/01/31 17:56:57;;;;;;;43.35;16.30;;;;;;;;;;6248340;28;20049;-51
2023/01/31 17:59:57;;;;;;;35.35;14.80;;;;;;;;;;6262594;28;20465;-54
2023/01/31 18:02:58;;;;;;;37.75;14.85;;;;;;;;;;6263743;28;20135;-59
2023/01/31 18:06:06;;;;;;;88.88;37.10;;;;;;;;;;6265182;28;20112;-52
2023/01/31 18:09:10;;;;;;;49.47;20.80;;;;;;;;;;6267264;28;20037;-59
2023/01/31 18:12:10;;;;;;;39.53;18.13;;;;;;;;;;6284524;28;20044;-59
2023/01/31 18:15:11;;;;;;;33.50;12.45;;;;;;;;;;6281699;28;20537;-61
2023/01/31 18:18:12;;;;;;;37.45;16.67;;;;;;;;;;6274189;28;20048;-53
2023/01/31 18:21:15;;;;;;;32.17;13.63;;;;;;;;;;6288580;28;20453;-51
2023/01/31 18:24:16;;;;;;;33.55;11.82;;;;;;;;;;6290126;28;20056;-62